VKG358 ESSA-VVTS
Flight info
| Callsign | VKG358 |
|---|---|
| Flight time | N/A |
| Altitude | 29000 |
| Route | BABAP T316 NEPVA DCT PENOR/N0491F310 N133 MOTAD DCT LENOV DCT KENIN DCT SAT DCT DOKUD DCT DINRO N743 UDROS UM859 KARDE/N0492F330 UN644 ROLIN N644 LAGAS M747 SUBUT T923 ERLEV M11 RODAR A909 NINOP B475 DAVET P173 TAPIS L509 HANGU/N0490F350 J139 NONIB L509 SULOM A466 ASARI L509 GGC R460 CEA L507 BKK N506 ELMOP R468 SAPEN SAPEN5B |
| Aircraft | B77W/H-SDE1E2E3FGHIJ2J3J4J5M1RWXY/LB1D1 |
Departure
| Time | 2026-05-06 03:06 |
|---|---|
| Airport | Stockholm-Arlanda Airport (ESSA) |
Arrival
| Time | N/A |
|---|---|
| Airport | Tan Son Nhat International Airport (VVTS) |
| Time | Latitude | Longitude | Altitude | Speed | Heading |
|---|---|---|---|---|---|
| 2026-05-06 02:42 | 59.65479 | 17.93773 | 116 ft | 0 kts | 248° |
| 2026-05-06 02:49 | 59.65474 | 17.93745 | 112 ft | 0 kts | 248° |
| 2026-05-06 02:53 | 59.65480 | 17.93776 | 112 ft | 4 kts | 248° |
| 2026-05-06 02:53 | 59.65490 | 17.93824 | 112 ft | 3 kts | 248° |
| 2026-05-06 02:53 | 59.65497 | 17.93867 | 113 ft | 4 kts | 272° |
| 2026-05-06 02:53 | 59.65494 | 17.93897 | 113 ft | 4 kts | 318° |
| 2026-05-06 02:54 | 59.65476 | 17.93915 | 113 ft | 4 kts | 347° |
| 2026-05-06 02:54 | 59.65455 | 17.93924 | 113 ft | 1 kts | 346° |
| 2026-05-06 02:58 | 59.65457 | 17.93923 | 113 ft | 2 kts | 346° |
| 2026-05-06 02:58 | 59.65476 | 17.93914 | 117 ft | 7 kts | 346° |
| 2026-05-06 02:58 | 59.65527 | 17.93889 | 114 ft | 8 kts | 346° |
| 2026-05-06 02:59 | 59.65578 | 17.93864 | 114 ft | 8 kts | 346° |
| 2026-05-06 02:59 | 59.65629 | 17.93838 | 118 ft | 8 kts | 344° |
| 2026-05-06 02:59 | 59.65666 | 17.93770 | 118 ft | 8 kts | 288° |
| 2026-05-06 02:59 | 59.65662 | 17.93663 | 118 ft | 9 kts | 258° |
| 2026-05-06 03:00 | 59.65645 | 17.93524 | 113 ft | 12 kts | 256° |
| 2026-05-06 03:00 | 59.65622 | 17.93341 | 112 ft | 15 kts | 256° |
| 2026-05-06 03:00 | 59.65596 | 17.93135 | 114 ft | 15 kts | 256° |
| 2026-05-06 03:00 | 59.65570 | 17.92928 | 111 ft | 15 kts | 256° |
| 2026-05-06 03:01 | 59.65544 | 17.92723 | 109 ft | 14 kts | 256° |
| 2026-05-06 03:01 | 59.65531 | 17.92591 | 109 ft | 8 kts | 275° |
| 2026-05-06 03:01 | 59.65570 | 17.92515 | 109 ft | 8 kts | 334° |
| 2026-05-06 03:01 | 59.65635 | 17.92476 | 108 ft | 12 kts | 345° |
| 2026-05-06 03:02 | 59.65716 | 17.92436 | 109 ft | 10 kts | 347° |
| 2026-05-06 03:02 | 59.65785 | 17.92428 | 110 ft | 10 kts | 7° |
| 2026-05-06 03:02 | 59.65862 | 17.92457 | 109 ft | 11 kts | 11° |
| 2026-05-06 03:02 | 59.65940 | 17.92485 | 111 ft | 11 kts | 10° |
| 2026-05-06 03:03 | 59.66018 | 17.92513 | 112 ft | 11 kts | 10° |
| 2026-05-06 03:03 | 59.66097 | 17.92542 | 114 ft | 12 kts | 10° |
| 2026-05-06 03:03 | 59.66199 | 17.92579 | 116 ft | 17 kts | 10° |
| 2026-05-06 03:03 | 59.66330 | 17.92627 | 119 ft | 20 kts | 10° |
| 2026-05-06 03:04 | 59.66440 | 17.92654 | 122 ft | 12 kts | 357° |
| 2026-05-06 03:04 | 59.66523 | 17.92612 | 124 ft | 12 kts | 340° |
| 2026-05-06 03:04 | 59.66594 | 17.92552 | 125 ft | 10 kts | 323° |
| 2026-05-06 03:04 | 59.66619 | 17.92435 | 127 ft | 8 kts | 274° |
| 2026-05-06 03:05 | 59.66596 | 17.92361 | 126 ft | 7 kts | 194° |
| 2026-05-06 03:05 | 59.66539 | 17.92341 | 128 ft | 15 kts | 190° |
| 2026-05-06 03:05 | 59.66270 | 17.92242 | 122 ft | 76 kts | 190° |
| 2026-05-06 03:05 | 59.65477 | 17.91957 | 109 ft | 154 kts | 190° |
| 2026-05-06 03:06 | 59.64237 | 17.91526 | 409 ft | 188 kts | 191° |
| 2026-05-06 03:06 | 59.62926 | 17.91072 | 1235 ft | 196 kts | 191° |
| 2026-05-06 03:06 | 59.61556 | 17.90637 | 1966 ft | 202 kts | 187° |
| 2026-05-06 03:06 | 59.60155 | 17.90450 | 2463 ft | 203 kts | 185° |
| 2026-05-06 03:07 | 59.58736 | 17.90300 | 2836 ft | 205 kts | 185° |
| 2026-05-06 03:07 | 59.57305 | 17.90268 | 3203 ft | 209 kts | 172° |
| 2026-05-06 03:07 | 59.55996 | 17.91630 | 3305 ft | 223 kts | 135° |
| 2026-05-06 03:07 | 59.54918 | 17.93918 | 3548 ft | 233 kts | 133° |
| 2026-05-06 03:08 | 59.54002 | 17.96625 | 3717 ft | 246 kts | 105° |
| 2026-05-06 03:08 | 59.53999 | 17.99985 | 4010 ft | 252 kts | 67° |
| 2026-05-06 03:08 | 59.55002 | 18.02770 | 4331 ft | 255 kts | 38° |
| 2026-05-06 03:08 | 59.56387 | 18.05081 | 4686 ft | 265 kts | 37° |
| 2026-05-06 03:09 | 59.57799 | 18.07505 | 5246 ft | 272 kts | 38° |
| 2026-05-06 03:09 | 59.59221 | 18.09995 | 5911 ft | 275 kts | 38° |
| 2026-05-06 03:09 | 59.60650 | 18.12516 | 6588 ft | 276 kts | 39° |
| 2026-05-06 03:09 | 59.61830 | 18.15466 | 7012 ft | 286 kts | 64° |
| 2026-05-06 03:10 | 59.62479 | 18.19222 | 7424 ft | 292 kts | 69° |
| 2026-05-06 03:10 | 59.63116 | 18.23050 | 8045 ft | 294 kts | 68° |
| 2026-05-06 03:10 | 59.63773 | 18.26890 | 8687 ft | 296 kts | 68° |
| 2026-05-06 03:10 | 59.64443 | 18.30763 | 9290 ft | 300 kts | 68° |
| 2026-05-06 03:11 | 59.65126 | 18.34679 | 9874 ft | 303 kts | 68° |
| 2026-05-06 03:11 | 59.65819 | 18.38647 | 10346 ft | 309 kts | 68° |
| 2026-05-06 03:11 | 59.66535 | 18.42743 | 10606 ft | 324 kts | 69° |
| 2026-05-06 03:11 | 59.66947 | 18.47235 | 10690 ft | 344 kts | 92° |
| 2026-05-06 03:12 | 59.66320 | 18.51897 | 10849 ft | 362 kts | 120° |
| 2026-05-06 03:12 | 59.64658 | 18.55698 | 11015 ft | 374 kts | 148° |
| 2026-05-06 03:12 | 59.63134 | 18.57280 | 11199 ft | 375 kts | 163° |
| 2026-05-06 03:12 | 59.59753 | 18.59359 | 11766 ft | 385 kts | 167° |
| 2026-05-06 03:13 | 59.57170 | 18.60908 | 12422 ft | 390 kts | 167° |
| 2026-05-06 03:13 | 59.55451 | 18.61981 | 12910 ft | 392 kts | 167° |
| 2026-05-06 03:13 | 59.51965 | 18.64245 | 13875 ft | 397 kts | 167° |
| 2026-05-06 03:13 | 59.49336 | 18.66003 | 14464 ft | 401 kts | 167° |
| 2026-05-06 03:14 | 59.47582 | 18.67183 | 14869 ft | 403 kts | 167° |
| 2026-05-06 03:14 | 59.44916 | 18.68973 | 15493 ft | 406 kts | 168° |
| 2026-05-06 03:14 | 59.42212 | 18.70189 | 15914 ft | 395 kts | 186° |
| 2026-05-06 03:14 | 59.39550 | 18.69515 | 16436 ft | 379 kts | 204° |
| 2026-05-06 03:15 | 59.37035 | 18.67988 | 17020 ft | 381 kts | 204° |
| 2026-05-06 03:15 | 59.34480 | 18.66506 | 17657 ft | 384 kts | 204° |
| 2026-05-06 03:15 | 59.31907 | 18.65065 | 18332 ft | 386 kts | 204° |
| 2026-05-06 03:15 | 59.29317 | 18.63632 | 18887 ft | 387 kts | 204° |
| 2026-05-06 03:16 | 59.26700 | 18.62272 | 19443 ft | 393 kts | 200° |
| 2026-05-06 03:16 | 59.23976 | 18.61375 | 19962 ft | 402 kts | 194° |
| 2026-05-06 03:16 | 59.21165 | 18.60950 | 20475 ft | 407 kts | 193° |
| 2026-05-06 03:16 | 59.18334 | 18.60540 | 20978 ft | 410 kts | 193° |
| 2026-05-06 03:17 | 59.15481 | 18.60114 | 21499 ft | 412 kts | 193° |
| 2026-05-06 03:17 | 59.12615 | 18.59675 | 22014 ft | 414 kts | 193° |
| 2026-05-06 03:17 | 59.09735 | 18.59228 | 22512 ft | 417 kts | 193° |
| 2026-05-06 03:17 | 59.06836 | 18.58774 | 23006 ft | 419 kts | 193° |
| 2026-05-06 03:18 | 59.03918 | 18.58317 | 23492 ft | 422 kts | 193° |
| 2026-05-06 03:18 | 59.00984 | 18.57858 | 23894 ft | 424 kts | 193° |
| 2026-05-06 03:18 | 58.98037 | 18.57398 | 24301 ft | 426 kts | 193° |
| 2026-05-06 03:18 | 58.95077 | 18.56935 | 24711 ft | 428 kts | 194° |
| 2026-05-06 03:19 | 58.92134 | 18.56255 | 25093 ft | 424 kts | 198° |
| 2026-05-06 03:19 | 58.89307 | 18.55026 | 25460 ft | 421 kts | 202° |
| 2026-05-06 03:19 | 58.86460 | 18.53640 | 25828 ft | 423 kts | 202° |
| 2026-05-06 03:19 | 58.83592 | 18.52270 | 26187 ft | 426 kts | 202° |
| 2026-05-06 03:20 | 58.77809 | 18.49557 | 26902 ft | 430 kts | 202° |
| 2026-05-06 03:20 | 58.74893 | 18.48202 | 27245 ft | 432 kts | 202° |
| 2026-05-06 03:20 | 58.71965 | 18.46847 | 27587 ft | 434 kts | 202° |
| 2026-05-06 03:21 | 58.69022 | 18.45487 | 27912 ft | 436 kts | 202° |
| 2026-05-06 03:21 | 58.66069 | 18.44126 | 28244 ft | 437 kts | 202° |
| 2026-05-06 03:21 | 58.63106 | 18.42762 | 28536 ft | 439 kts | 202° |
| 2026-05-06 03:21 | 58.60124 | 18.41391 | 28808 ft | 441 kts | 202° |
| 2026-05-06 03:22 | 58.57123 | 18.40012 | 28913 ft | 446 kts | 202° |
| 2026-05-06 03:22 | 58.54095 | 18.38622 | 28974 ft | 449 kts | 202° |
| 2026-05-06 03:22 | 58.51048 | 18.37227 | 29090 ft | 452 kts | 201° |
| 2026-05-06 03:22 | 58.47985 | 18.35831 | 29402 ft | 452 kts | 201° |
| 2026-05-06 03:23 | 58.44937 | 18.34448 | 29822 ft | 449 kts | 201° |
| 2026-05-06 03:23 | 58.41902 | 18.33074 | 30196 ft | 447 kts | 202° |
| 2026-05-06 03:23 | 58.38875 | 18.31704 | 30486 ft | 447 kts | 202° |
| 2026-05-06 03:23 | 58.35851 | 18.30334 | 30722 ft | 447 kts | 201° |
| 2026-05-06 03:24 | 58.32831 | 18.28966 | 30902 ft | 447 kts | 201° |
| 2026-05-06 03:24 | 58.29794 | 18.27591 | 30923 ft | 449 kts | 201° |
| 2026-05-06 03:24 | 58.23727 | 18.24857 | 30974 ft | 447 kts | 201° |
| 2026-05-06 03:25 | 58.17681 | 18.22145 | 30971 ft | 446 kts | 201° |
| 2026-05-06 03:25 | 58.11649 | 18.19446 | 30972 ft | 445 kts | 201° |
| 2026-05-06 03:26 | 58.05616 | 18.16755 | 30975 ft | 445 kts | 201° |
| 2026-05-06 03:26 | 57.99578 | 18.14071 | 30983 ft | 446 kts | 201° |
| 2026-05-06 03:27 | 57.93527 | 18.11390 | 30981 ft | 447 kts | 201° |
| 2026-05-06 03:27 | 57.87465 | 18.08716 | 30977 ft | 448 kts | 201° |
| 2026-05-06 03:28 | 57.81394 | 18.06047 | 30974 ft | 448 kts | 201° |
| 2026-05-06 03:28 | 57.75315 | 18.03384 | 30987 ft | 449 kts | 201° |
| 2026-05-06 03:29 | 57.69240 | 18.00731 | 30983 ft | 448 kts | 201° |
| 2026-05-06 03:29 | 57.63166 | 17.98089 | 30983 ft | 448 kts | 201° |
| 2026-05-06 03:30 | 57.57102 | 17.95460 | 30980 ft | 447 kts | 201° |
| 2026-05-06 03:30 | 57.51042 | 17.92841 | 30976 ft | 447 kts | 201° |
| 2026-05-06 03:31 | 57.44991 | 17.90235 | 30976 ft | 446 kts | 201° |
| 2026-05-06 03:31 | 57.38942 | 17.87638 | 30973 ft | 446 kts | 201° |
| 2026-05-06 03:32 | 57.32940 | 17.85069 | 30975 ft | 446 kts | 201° |
| 2026-05-06 03:32 | 57.26899 | 17.82493 | 30971 ft | 446 kts | 201° |
| 2026-05-06 03:33 | 57.20856 | 17.79924 | 30966 ft | 446 kts | 201° |
| 2026-05-06 03:33 | 57.14809 | 17.77363 | 30963 ft | 446 kts | 201° |
| 2026-05-06 03:34 | 57.08760 | 17.74809 | 30967 ft | 446 kts | 201° |
| 2026-05-06 03:34 | 57.02708 | 17.72263 | 30967 ft | 446 kts | 201° |
| 2026-05-06 03:35 | 56.96649 | 17.69722 | 30968 ft | 447 kts | 201° |
| 2026-05-06 03:35 | 56.90585 | 17.67188 | 30965 ft | 447 kts | 201° |
| 2026-05-06 03:36 | 56.84523 | 17.64663 | 30968 ft | 447 kts | 201° |
| 2026-05-06 03:36 | 56.78440 | 17.62138 | 30967 ft | 448 kts | 200° |
| 2026-05-06 03:37 | 56.72368 | 17.59626 | 30962 ft | 448 kts | 200° |
| 2026-05-06 03:37 | 56.66282 | 17.57116 | 30962 ft | 448 kts | 200° |
| 2026-05-06 03:38 | 56.60199 | 17.54616 | 30957 ft | 448 kts | 200° |
| 2026-05-06 03:38 | 56.54116 | 17.52125 | 30958 ft | 448 kts | 200° |
| 2026-05-06 03:39 | 56.48038 | 17.49643 | 30956 ft | 448 kts | 200° |
| 2026-05-06 03:39 | 56.41953 | 17.47166 | 30953 ft | 448 kts | 199° |
| 2026-05-06 03:40 | 56.35873 | 17.44700 | 30950 ft | 448 kts | 199° |
| 2026-05-06 03:40 | 56.29832 | 17.42257 | 30952 ft | 448 kts | 199° |
| 2026-05-06 03:41 | 56.23707 | 17.39789 | 30955 ft | 448 kts | 199° |
| 2026-05-06 03:41 | 56.17663 | 17.37361 | 30950 ft | 448 kts | 199° |
| 2026-05-06 03:42 | 56.11580 | 17.34925 | 30944 ft | 448 kts | 199° |
| 2026-05-06 03:42 | 56.05489 | 17.32494 | 30941 ft | 448 kts | 198° |
| 2026-05-06 03:43 | 55.99395 | 17.30069 | 30943 ft | 449 kts | 198° |
| 2026-05-06 03:43 | 55.93296 | 17.27651 | 30940 ft | 449 kts | 198° |
| 2026-05-06 03:44 | 55.87187 | 17.25236 | 30941 ft | 450 kts | 198° |
| 2026-05-06 03:44 | 55.81076 | 17.22828 | 30930 ft | 450 kts | 198° |
| 2026-05-06 03:45 | 55.74955 | 17.20423 | 30933 ft | 451 kts | 198° |
| 2026-05-06 03:45 | 55.68827 | 17.18043 | 30927 ft | 451 kts | 195° |
| 2026-05-06 03:46 | 55.65677 | 17.17573 | 30924 ft | 460 kts | 184° |
| 2026-05-06 03:46 | 55.62472 | 17.18169 | 30935 ft | 468 kts | 175° |
| 2026-05-06 03:46 | 55.56241 | 17.21981 | 30951 ft | 480 kts | 161° |
| 2026-05-06 03:47 | 55.50183 | 17.27067 | 30937 ft | 483 kts | 161° |
| 2026-05-06 03:47 | 55.44091 | 17.32090 | 30925 ft | 484 kts | 161° |
| 2026-05-06 03:48 | 55.37969 | 17.37012 | 30920 ft | 484 kts | 161° |
| 2026-05-06 03:48 | 55.31845 | 17.41895 | 30921 ft | 483 kts | 161° |
| 2026-05-06 03:49 | 55.25732 | 17.46762 | 30913 ft | 482 kts | 161° |
| 2026-05-06 03:49 | 55.19629 | 17.51590 | 30911 ft | 480 kts | 162° |
| 2026-05-06 03:50 | 55.13461 | 17.55935 | 30909 ft | 477 kts | 165° |
| 2026-05-06 03:50 | 55.07270 | 17.60044 | 30907 ft | 476 kts | 165° |
| 2026-05-06 03:51 | 55.01093 | 17.64175 | 30906 ft | 475 kts | 164° |
| 2026-05-06 03:51 | 54.94929 | 17.68347 | 30909 ft | 475 kts | 164° |
| 2026-05-06 03:52 | 54.88769 | 17.72526 | 30904 ft | 475 kts | 164° |
| 2026-05-06 03:52 | 54.82604 | 17.76698 | 30904 ft | 475 kts | 164° |
| 2026-05-06 03:53 | 54.76439 | 17.80854 | 30900 ft | 476 kts | 164° |
| 2026-05-06 03:53 | 54.70268 | 17.84999 | 30901 ft | 476 kts | 164° |
| 2026-05-06 03:54 | 54.64095 | 17.89130 | 30895 ft | 476 kts | 164° |
| 2026-05-06 03:54 | 54.57921 | 17.93249 | 30895 ft | 476 kts | 163° |
| 2026-05-06 03:55 | 54.51789 | 17.97328 | 30890 ft | 475 kts | 163° |
| 2026-05-06 03:55 | 54.45617 | 18.01419 | 30887 ft | 475 kts | 163° |
| 2026-05-06 03:56 | 54.39444 | 18.05497 | 30898 ft | 475 kts | 163° |
| 2026-05-06 03:56 | 54.33273 | 18.09560 | 30889 ft | 475 kts | 163° |
| 2026-05-06 03:57 | 54.27109 | 18.13608 | 30887 ft | 474 kts | 163° |
| 2026-05-06 03:57 | 54.20953 | 18.17637 | 30883 ft | 473 kts | 163° |
| 2026-05-06 03:58 | 54.14803 | 18.21649 | 30883 ft | 473 kts | 163° |
| 2026-05-06 03:58 | 54.08663 | 18.25641 | 30878 ft | 472 kts | 163° |
| 2026-05-06 03:59 | 54.02536 | 18.29612 | 30871 ft | 471 kts | 163° |
| 2026-05-06 03:59 | 53.97449 | 18.32899 | 30871 ft | 470 kts | 163° |
| 2026-05-06 04:00 | 53.91332 | 18.36841 | 30859 ft | 470 kts | 163° |
| 2026-05-06 04:00 | 53.85219 | 18.40767 | 30860 ft | 470 kts | 163° |
| 2026-05-06 04:01 | 53.79108 | 18.44680 | 30860 ft | 470 kts | 163° |
| 2026-05-06 04:01 | 53.72988 | 18.48587 | 30857 ft | 470 kts | 163° |
| 2026-05-06 04:02 | 53.66861 | 18.52486 | 30852 ft | 471 kts | 163° |
| 2026-05-06 04:02 | 53.60731 | 18.56375 | 30842 ft | 471 kts | 163° |
| 2026-05-06 04:03 | 53.54590 | 18.60259 | 30840 ft | 472 kts | 163° |
| 2026-05-06 04:03 | 53.48441 | 18.64136 | 30833 ft | 472 kts | 163° |
| 2026-05-06 04:04 | 53.42286 | 18.68005 | 30827 ft | 473 kts | 163° |
| 2026-05-06 04:04 | 53.36126 | 18.71864 | 30823 ft | 473 kts | 163° |
| 2026-05-06 04:05 | 53.29959 | 18.75717 | 30823 ft | 473 kts | 163° |
| 2026-05-06 04:05 | 53.23826 | 18.79536 | 30815 ft | 474 kts | 163° |
| 2026-05-06 04:06 | 53.17652 | 18.83369 | 30812 ft | 474 kts | 163° |
| 2026-05-06 04:06 | 53.11474 | 18.87193 | 30811 ft | 473 kts | 162° |
| 2026-05-06 04:07 | 53.05299 | 18.91003 | 30808 ft | 473 kts | 162° |
| 2026-05-06 04:07 | 52.99125 | 18.94801 | 30802 ft | 473 kts | 162° |
| 2026-05-06 04:08 | 52.92951 | 18.98587 | 30800 ft | 473 kts | 162° |
| 2026-05-06 04:08 | 52.86778 | 19.02362 | 30800 ft | 473 kts | 162° |
| 2026-05-06 04:09 | 52.80600 | 19.06126 | 30790 ft | 473 kts | 162° |
| 2026-05-06 04:09 | 52.74425 | 19.09879 | 30789 ft | 473 kts | 162° |
| 2026-05-06 04:10 | 52.68247 | 19.13623 | 30792 ft | 473 kts | 162° |
| 2026-05-06 04:10 | 52.62069 | 19.17354 | 30782 ft | 473 kts | 162° |
| 2026-05-06 04:11 | 52.55891 | 19.21075 | 30782 ft | 473 kts | 162° |
| 2026-05-06 04:11 | 52.49716 | 19.24782 | 30780 ft | 473 kts | 162° |
| 2026-05-06 04:12 | 52.43539 | 19.28479 | 30794 ft | 472 kts | 162° |
| 2026-05-06 04:12 | 52.37357 | 19.32169 | 30769 ft | 473 kts | 162° |
| 2026-05-06 04:13 | 52.31177 | 19.35846 | 30770 ft | 473 kts | 162° |
| 2026-05-06 04:13 | 52.24994 | 19.39515 | 30774 ft | 473 kts | 162° |
| 2026-05-06 04:14 | 52.18805 | 19.43175 | 30771 ft | 473 kts | 162° |
| 2026-05-06 04:14 | 52.12612 | 19.46828 | 30774 ft | 474 kts | 162° |
| 2026-05-06 04:15 | 52.06453 | 19.50449 | 30772 ft | 474 kts | 162° |
| 2026-05-06 04:15 | 52.00248 | 19.54087 | 30774 ft | 474 kts | 162° |
| 2026-05-06 04:16 | 51.94041 | 19.57715 | 30772 ft | 474 kts | 162° |
| 2026-05-06 04:16 | 51.87830 | 19.61336 | 30771 ft | 475 kts | 162° |
| 2026-05-06 04:17 | 51.81613 | 19.64948 | 30772 ft | 475 kts | 162° |
| 2026-05-06 04:17 | 51.75395 | 19.68551 | 30771 ft | 475 kts | 162° |
| 2026-05-06 04:18 | 51.69174 | 19.72145 | 30775 ft | 475 kts | 162° |
| 2026-05-06 04:18 | 51.62953 | 19.75728 | 30772 ft | 475 kts | 162° |
| 2026-05-06 04:19 | 51.56731 | 19.79302 | 30773 ft | 475 kts | 162° |
| 2026-05-06 04:19 | 51.50504 | 19.82869 | 30775 ft | 475 kts | 162° |
| 2026-05-06 04:20 | 51.44275 | 19.86425 | 30772 ft | 475 kts | 162° |
| 2026-05-06 04:20 | 51.38042 | 19.89974 | 30777 ft | 475 kts | 162° |
| 2026-05-06 04:21 | 51.31807 | 19.93513 | 30777 ft | 476 kts | 162° |
| 2026-05-06 04:21 | 51.25570 | 19.97045 | 30781 ft | 476 kts | 162° |
| 2026-05-06 04:22 | 51.19327 | 20.00569 | 30782 ft | 476 kts | 162° |
| 2026-05-06 04:23 | 51.09943 | 20.05846 | 30779 ft | 477 kts | 162° |
| 2026-05-06 04:23 | 51.03682 | 20.09355 | 30785 ft | 477 kts | 162° |
| 2026-05-06 04:24 | 50.97408 | 20.12860 | 30788 ft | 478 kts | 162° |
| 2026-05-06 04:24 | 50.91125 | 20.16361 | 30787 ft | 479 kts | 162° |
| 2026-05-06 04:25 | 50.84836 | 20.19856 | 30783 ft | 479 kts | 162° |
| 2026-05-06 04:25 | 50.78539 | 20.23345 | 30786 ft | 480 kts | 162° |
| 2026-05-06 04:26 | 50.72237 | 20.26826 | 30789 ft | 480 kts | 162° |
| 2026-05-06 04:26 | 50.65931 | 20.30300 | 30795 ft | 480 kts | 162° |
| 2026-05-06 04:27 | 50.59658 | 20.33745 | 30792 ft | 481 kts | 162° |
| 2026-05-06 04:27 | 50.53338 | 20.37207 | 30782 ft | 481 kts | 162° |
| 2026-05-06 04:28 | 50.46972 | 20.40684 | 30785 ft | 481 kts | 162° |
| 2026-05-06 04:28 | 50.40643 | 20.44131 | 30783 ft | 481 kts | 162° |
| 2026-05-06 04:29 | 50.34310 | 20.47571 | 30782 ft | 482 kts | 162° |
| 2026-05-06 04:29 | 50.28020 | 20.50977 | 30801 ft | 482 kts | 162° |
| 2026-05-06 04:30 | 50.21682 | 20.54400 | 30779 ft | 482 kts | 162° |
| 2026-05-06 04:30 | 50.15340 | 20.57816 | 30798 ft | 482 kts | 162° |
| 2026-05-06 04:31 | 50.08995 | 20.61222 | 30800 ft | 482 kts | 162° |
| 2026-05-06 04:31 | 50.02649 | 20.64621 | 30798 ft | 482 kts | 162° |
| 2026-05-06 04:32 | 49.96301 | 20.68011 | 30797 ft | 482 kts | 163° |
| 2026-05-06 04:32 | 49.89949 | 20.71394 | 30801 ft | 483 kts | 163° |
| 2026-05-06 04:33 | 49.83592 | 20.74770 | 30805 ft | 483 kts | 163° |
| 2026-05-06 04:33 | 49.77226 | 20.78141 | 30809 ft | 484 kts | 163° |
| 2026-05-06 04:34 | 49.70857 | 20.81505 | 30818 ft | 484 kts | 163° |
| 2026-05-06 04:34 | 49.64471 | 20.84868 | 30820 ft | 485 kts | 163° |
| 2026-05-06 04:35 | 49.58081 | 20.88225 | 30826 ft | 485 kts | 163° |
| 2026-05-06 04:35 | 49.51688 | 20.91573 | 30829 ft | 485 kts | 163° |
| 2026-05-06 04:36 | 49.45289 | 20.94916 | 30841 ft | 486 kts | 163° |
| 2026-05-06 04:36 | 49.38891 | 20.98251 | 30843 ft | 486 kts | 163° |
| 2026-05-06 04:37 | 49.32600 | 21.02047 | 30855 ft | 487 kts | 155° |
| 2026-05-06 04:37 | 49.26779 | 21.07408 | 30863 ft | 489 kts | 149° |
| 2026-05-06 04:38 | 49.21080 | 21.12973 | 30875 ft | 490 kts | 149° |
| 2026-05-06 04:38 | 49.15313 | 21.18534 | 30870 ft | 490 kts | 149° |
| 2026-05-06 04:39 | 49.09532 | 21.24052 | 30888 ft | 490 kts | 149° |
| 2026-05-06 04:39 | 49.03741 | 21.29556 | 30887 ft | 491 kts | 149° |
| 2026-05-06 04:40 | 48.97946 | 21.35051 | 30901 ft | 491 kts | 149° |
| 2026-05-06 04:40 | 48.93087 | 21.39648 | 30900 ft | 491 kts | 149° |
| 2026-05-06 04:41 | 48.86339 | 21.46015 | 30917 ft | 491 kts | 149° |
| 2026-05-06 04:41 | 48.81516 | 21.50554 | 30912 ft | 491 kts | 149° |
| 2026-05-06 04:42 | 48.74724 | 21.56927 | 30914 ft | 491 kts | 149° |
| 2026-05-06 04:42 | 48.68915 | 21.62363 | 30914 ft | 491 kts | 149° |
| 2026-05-06 04:43 | 48.63102 | 21.67785 | 30918 ft | 491 kts | 149° |
| 2026-05-06 04:43 | 48.57289 | 21.73195 | 30928 ft | 491 kts | 149° |
| 2026-05-06 04:44 | 48.51474 | 21.78592 | 30938 ft | 491 kts | 150° |
| 2026-05-06 04:44 | 48.45650 | 21.83983 | 30934 ft | 492 kts | 150° |
| 2026-05-06 04:45 | 48.39817 | 21.89368 | 30939 ft | 492 kts | 149° |
| 2026-05-06 04:45 | 48.34322 | 21.95509 | 30945 ft | 494 kts | 139° |
| 2026-05-06 04:46 | 48.29508 | 22.02895 | 30952 ft | 495 kts | 135° |
| 2026-05-06 04:46 | 48.24746 | 22.10358 | 30947 ft | 495 kts | 135° |
| 2026-05-06 04:47 | 48.20762 | 22.16530 | 30951 ft | 496 kts | 135° |
| 2026-05-06 04:47 | 48.15948 | 22.23927 | 30953 ft | 496 kts | 135° |
| 2026-05-06 04:48 | 48.11118 | 22.31315 | 30959 ft | 496 kts | 135° |
| 2026-05-06 04:48 | 48.05500 | 22.39886 | 30960 ft | 497 kts | 135° |
| 2026-05-06 04:49 | 48.01444 | 22.46059 | 30963 ft | 497 kts | 135° |
| 2026-05-06 04:49 | 47.96598 | 22.53416 | 30966 ft | 497 kts | 135° |
| 2026-05-06 04:50 | 47.90959 | 22.61950 | 30968 ft | 497 kts | 135° |
| 2026-05-06 04:50 | 47.86923 | 22.68042 | 30968 ft | 497 kts | 135° |
| 2026-05-06 04:51 | 47.82063 | 22.75357 | 30969 ft | 497 kts | 135° |
| 2026-05-06 04:51 | 47.77201 | 22.82659 | 30968 ft | 497 kts | 135° |
| 2026-05-06 04:52 | 47.72348 | 22.89966 | 30965 ft | 497 kts | 133° |
| 2026-05-06 04:52 | 47.67774 | 22.97651 | 30970 ft | 496 kts | 131° |
| 2026-05-06 04:53 | 47.63248 | 23.05392 | 30972 ft | 497 kts | 131° |
| 2026-05-06 04:53 | 47.58712 | 23.13107 | 30975 ft | 497 kts | 131° |
| 2026-05-06 04:54 | 47.54159 | 23.20792 | 30995 ft | 496 kts | 131° |
| 2026-05-06 04:54 | 47.49600 | 23.28456 | 30992 ft | 496 kts | 131° |
| 2026-05-06 04:55 | 47.45041 | 23.36097 | 30998 ft | 495 kts | 131° |
| 2026-05-06 04:55 | 47.40479 | 23.43724 | 30996 ft | 495 kts | 132° |
| 2026-05-06 04:56 | 47.35919 | 23.51326 | 31001 ft | 495 kts | 132° |